Airfield :
LOGIN :

Register | Disclaimer

   EN    FR    IT 

 










Legend :    VFR   Marginal VFR   IFR   Intensive IFR   Very Intensive IFR
Visi :
Ceiling :
>= 8 km
>= 3000ft
5 to 8 km
1000 to 3000 ft
1500m to 5 km
500 to 1000 ft
800 to 1500m
200 to 500 ft
< 800m
< 200 ft
Symbols :   Thunderstorms  Fog  Heavy snow  Heavy precipitations  Wind > 20 kt
SIGMETs :     Misc.  Thunderstorms  Icing  Turbulence  Mountain Waves  Volcanic Ashes







- Airport Elevation : 32 ft
- IATA code : NRK


ESSP - Norrköping

CURRENT METAR :
  • 221450Z 12002KT 6000 -SN FEW005 BKN029 M01/M01 Q1009 R27/790156

EXPIRED METARs :
  • 221420Z 09002KT 6000 -SN FEW005 BKN035 M01/M01 Q1009 R27/790156
  • 221350Z 12003KT 7000 -SN FEW006 BKN033 M01/M01 Q1009 R27/790156
  • 221320Z 11004KT 7000 -SN FEW006 BKN044 M01/M01 Q1009 R27/790156
  • 221250Z 11004KT 6000 -SN FEW006 BKN039 M01/M01 Q1010 R27/790156
  • 221220Z 11002KT 7000 BKN024 M01/M01 Q1010 R27/490149

TAF TAF ESSP
Valid from the 22 at 15:00 until the 22 at 23:00 UTC


221430Z 2215/2223 14005KT 8000 -SN SCT006 BKN015
TEMPO 2215/2223 2500 SN BKN004
No reported NOTAMs for that airfield.



MET'MAP, your aeronautical weather chart ! - Copyright ORBIFLY December 2007 - Disclaimer

ORBIFLY MET'MAP TEAM :

Programming & Development : Alexandra Zaïnal
Concept & Development : Baudouin d'Aumeries
Co-Development & Prog : Marc-Olivier Méhu
Technical & hardware support : Manuel Goepfert

Contact : metmap@orbifly.com




SOURCES & CREDITS :

   NOAA